Time;durP1;ratioP1;P1;durP2;ratioP2;P2;SDS_P1;SDS_P2;PMS_P1;PMS_P2;Temp;Humidity;BMP_temperature;BMP_pressure;BME280_temperature;BME280_humidity;BME280_pressure;Samples;Min_cycle;Max_cycle;Signal;HPM_P1;HPM_P2
2023/10/03 00:00:49;;;;;;;18.40;16.60;;;17.50;1.00;;;;;;5068587;28;20510;-76
2023/10/03 00:03:19;;;;;;;18.60;16.03;;;17.50;1.00;;;;;;5067480;28;20601;-76
2023/10/03 00:05:47;;;;;;;17.50;15.37;;;17.50;1.00;;;;;;5070100;28;20472;-75
2023/10/03 00:08:16;;;;;;;27.07;15.73;;;17.40;1.00;;;;;;5065191;28;20459;-75
2023/10/03 00:10:43;;;;;;;18.53;16.40;;;17.30;1.00;;;;;;5051308;28;20484;-75
2023/10/03 00:13:11;;;;;;;17.50;15.80;;;17.30;1.00;;;;;;5055292;28;20705;-74
2023/10/03 00:15:44;;;;;;;19.50;16.90;;;17.20;1.00;;;;;;5046920;28;20463;-76
2023/10/03 00:18:11;;;;;;;18.50;15.93;;;17.10;1.00;;;;;;5050185;28;20456;-75
2023/10/03 00:20:38;;;;;;;16.40;14.80;;;17.10;1.00;;;;;;5051507;28;20912;-75
2023/10/03 00:23:06;;;;;;;18.00;16.20;;;17.00;1.00;;;;;;5051495;28;20448;-75
2023/10/03 00:25:35;;;;;;;18.97;16.97;;;17.00;1.00;;;;;;5051383;28;20571;-74
2023/10/03 00:28:06;;;;;;;17.00;15.17;;;16.90;1.00;;;;;;5047193;28;20543;-74
2023/10/03 00:30:35;;;;;;;18.77;15.97;;;16.90;1.00;;;;;;5048174;28;20450;-74
2023/10/03 00:33:05;;;;;;;18.53;15.53;;;16.90;1.00;;;;;;5054370;28;20500;-76
2023/10/03 00:35:32;;;;;;;18.20;14.70;;;16.80;1.00;;;;;;5049466;28;20493;-74
2023/10/03 00:38:00;;;;;;;17.17;15.03;;;16.80;1.00;;;;;;5048270;28;20471;-74
2023/10/03 00:40:28;;;;;;;17.30;14.67;;;16.80;1.00;;;;;;5050155;28;20460;-76
2023/10/03 00:42:59;;;;;;;17.80;16.00;;;16.70;1.00;;;;;;5049048;28;20460;-74
2023/10/03 00:45:27;;;;;;;19.20;14.90;;;16.70;1.00;;;;;;5046717;28;20592;-75
2023/10/03 00:47:54;;;;;;;19.53;15.33;;;16.70;1.00;;;;;;5053738;28;20512;-74
2023/10/03 00:50:23;;;;;;;17.80;16.00;;;16.70;1.00;;;;;;5048496;28;21171;-75
2023/10/03 00:52:55;;;;;;;19.30;17.30;;;16.70;1.00;;;;;;5050333;28;20486;-74
2023/10/03 00:55:26;;;;;;;18.97;16.80;;;16.70;1.00;;;;;;5054125;28;20460;-74
2023/10/03 00:58:06;;;;;;;18.80;16.97;;;16.70;1.00;;;;;;5047872;28;20477;-74
2023/10/03 01:00:37;;;;;;;18.80;16.83;;;16.80;1.00;;;;;;5048686;28;20960;-74
2023/10/03 01:03:06;;;;;;;20.27;18.17;;;16.80;1.00;;;;;;5052807;28;20577;-74
2023/10/03 01:05:33;;;;;;;18.20;16.30;;;16.80;1.00;;;;;;5050278;28;21020;-75
2023/10/03 01:08:00;;;;;;;19.03;16.57;;;16.90;1.00;;;;;;5050051;28;20921;-73
2023/10/03 01:10:28;;;;;;;18.57;16.80;;;16.90;1.00;;;;;;5048924;28;20845;-74
2023/10/03 01:12:55;;;;;;;19.10;17.10;;;17.00;1.00;;;;;;5051160;28;20458;-74
2023/10/03 01:15:23;;;;;;;18.07;16.30;;;17.00;1.00;;;;;;5046613;28;20469;-73
2023/10/03 01:17:57;;;;;;;19.20;17.30;;;17.00;1.00;;;;;;5046851;28;20878;-74
2023/10/03 01:20:28;;;;;;;17.77;15.50;;;17.10;1.00;;;;;;5048982;28;21693;-74
2023/10/03 01:22:56;;;;;;;19.20;17.30;;;17.10;1.00;;;;;;5047675;28;20464;-73
2023/10/03 01:25:27;;;;;;;17.47;15.67;;;17.00;1.00;;;;;;5050909;28;20543;-75
2023/10/03 01:27:56;;;;;;;17.30;15.60;;;16.90;1.00;;;;;;5046753;28;21032;-70
2023/10/03 01:30:23;;;;;;;19.00;15.73;;;17.00;1.00;;;;;;5050479;28;20896;-72
2023/10/03 01:32:55;;;;;;;18.07;16.17;;;16.90;1.00;;;;;;5053562;28;21824;-71
2023/10/03 01:35:22;;;;;;;17.70;14.60;;;16.90;1.00;;;;;;5048408;28;20469;-72
2023/10/03 01:37:50;;;;;;;17.40;15.70;;;16.80;1.00;;;;;;5046898;28;20915;-72
2023/10/03 01:40:19;;;;;;;16.97;15.10;;;16.70;1.00;;;;;;5049001;28;20494;-70
2023/10/03 01:42:48;;;;;;;16.47;14.77;;;16.70;1.00;;;;;;5048159;28;22689;-71
2023/10/03 01:45:17;;;;;;;19.33;15.67;;;16.60;1.00;;;;;;5046636;28;20476;-71
2023/10/03 01:47:48;;;;;;;19.13;15.77;;;16.60;1.00;;;;;;5047135;28;20527;-71
2023/10/03 01:50:17;;;;;;;17.47;15.80;;;16.60;1.00;;;;;;5044084;28;20616;-70
2023/10/03 01:52:44;;;;;;;16.73;15.23;;;16.50;1.00;;;;;;5049684;28;20954;-70
2023/10/03 01:55:12;;;;;;;18.30;15.73;;;16.50;1.00;;;;;;5048944;28;21784;-73
2023/10/03 01:57:39;;;;;;;19.83;16.87;;;16.40;1.00;;;;;;5047727;28;20942;-71
2023/10/03 02:00:20;;;;;;;24.97;22.70;;;16.40;1.00;;;;;;5049704;28;20421;-70
2023/10/03 02:02:48;;;;;;;17.97;16.10;;;16.30;1.00;;;;;;5050727;27;20932;-71
2023/10/03 02:05:16;;;;;;;17.10;15.30;;;16.20;1.00;;;;;;5047533;28;20567;-71
2023/10/03 02:07:45;;;;;;;18.63;15.97;;;16.10;1.00;;;;;;5050558;28;20452;-70
2023/10/03 02:10:12;;;;;;;17.57;15.97;;;16.10;1.00;;;;;;5043778;28;20464;-72
2023/10/03 02:12:48;;;;;;;17.73;15.93;;;16.10;1.00;;;;;;5048235;28;20447;-72
2023/10/03 02:15:20;;;;;;;20.60;17.10;;;16.10;1.00;;;;;;5055285;28;20467;-73
2023/10/03 02:17:49;;;;;;;18.03;16.13;;;16.00;1.00;;;;;;5064484;28;20467;-71
2023/10/03 02:20:20;;;;;;;18.33;16.43;;;16.00;1.00;;;;;;5047486;28;20988;-72
2023/10/03 02:22:55;;;;;;;18.00;16.37;;;15.90;1.00;;;;;;5048465;28;20475;-72
2023/10/03 02:25:23;;;;;;;18.37;16.40;;;15.80;1.00;;;;;;5049403;28;20486;-71
2023/10/03 02:27:53;;;;;;;17.40;15.43;;;15.80;1.00;;;;;;5045611;28;20476;-72
2023/10/03 02:30:25;;;;;;;18.03;16.13;;;15.80;1.00;;;;;;5043120;28;20460;-72
2023/10/03 02:32:53;;;;;;;16.37;14.67;;;15.70;1.00;;;;;;5049231;28;21025;-73
2023/10/03 02:35:24;;;;;;;17.10;15.40;;;15.70;1.00;;;;;;5049112;28;20941;-72
2023/10/03 02:37:53;;;;;;;18.03;15.80;;;15.70;1.00;;;;;;5049451;28;20857;-75
2023/10/03 02:40:23;;;;;;;18.10;16.00;;;15.70;1.00;;;;;;5050436;28;20460;-74
2023/10/03 02:42:51;;;;;;;14.60;13.23;;;15.70;1.00;;;;;;5044724;28;20506;-73
2023/10/03 02:45:22;;;;;;;17.57;15.10;;;15.70;1.00;;;;;;5045820;28;20472;-73
2023/10/03 02:47:53;;;;;;;20.43;14.60;;;15.70;1.00;;;;;;5050340;28;20466;-75
2023/10/03 02:50:21;;;;;;;15.17;13.63;;;15.60;1.00;;;;;;5050111;28;20462;-74
2023/10/03 02:52:48;;;;;;;17.60;15.47;;;15.60;1.00;;;;;;5049307;28;20460;-74
2023/10/03 02:55:17;;;;;;;18.67;14.80;;;15.60;1.00;;;;;;5049905;28;20499;-74
2023/10/03 02:57:44;;;;;;;15.37;13.47;;;15.70;1.00;;;;;;5047995;28;20452;-76
2023/10/03 03:00:14;;;;;;;16.47;13.57;;;15.70;1.00;;;;;;5047738;28;20465;-77
2023/10/03 03:02:42;;;;;;;17.90;14.13;;;15.60;1.00;;;;;;5048327;28;20910;-76
2023/10/03 03:05:15;;;;;;;14.10;12.43;;;15.70;1.00;;;;;;5048796;28;20491;-75
2023/10/03 03:07:44;;;;;;;17.30;13.13;;;15.70;1.00;;;;;;5047808;28;20466;-76
2023/10/03 03:10:13;;;;;;;13.10;11.83;;;15.60;1.00;;;;;;5048611;28;20483;-75
2023/10/03 03:12:41;;;;;;;15.80;13.23;;;15.60;1.00;;;;;;5047174;28;20448;-76
2023/10/03 03:15:10;;;;;;;14.00;12.60;;;15.60;1.00;;;;;;5046586;28;20538;-77
2023/10/03 03:17:39;;;;;;;16.77;13.50;;;15.60;1.00;;;;;;5059979;28;20953;-75
2023/10/03 03:20:20;;;;;;;15.03;13.53;;;15.60;1.00;;;;;;5068566;28;20998;-76
2023/10/03 03:22:50;;;;;;;15.33;13.73;;;15.60;1.00;;;;;;5069287;28;20486;-76
2023/10/03 03:25:24;;;;;;;17.67;13.60;;;15.60;1.00;;;;;;5069614;28;20965;-75
2023/10/03 03:27:55;;;;;;;16.20;12.73;;;15.60;1.00;;;;;;5068261;28;20553;-76
2023/10/03 03:30:35;;;;;;;15.00;13.47;;;15.60;1.00;;;;;;5070307;28;20482;-75
2023/10/03 03:33:06;;;;;;;15.30;12.10;;;15.50;1.00;;;;;;5068484;28;20459;-75
2023/10/03 03:35:39;;;;;;;13.10;11.77;;;15.40;1.00;;;;;;5065744;28;20477;-75
2023/10/03 03:38:15;;;;;;;14.80;12.33;;;15.40;1.00;;;;;;5055324;28;20992;-75
2023/10/03 03:40:45;;;;;;;13.27;11.87;;;15.40;1.00;;;;;;5069212;28;20448;-75
2023/10/03 03:43:13;;;;;;;14.10;12.23;;;15.40;1.00;;;;;;5066944;28;21050;-75
2023/10/03 03:45:41;;;;;;;14.80;12.23;;;15.40;1.00;;;;;;5067058;28;20479;-75
2023/10/03 03:48:09;;;;;;;14.00;12.47;;;15.40;1.00;;;;;;5069283;28;20462;-76
2023/10/03 03:50:37;;;;;;;14.73;11.97;;;15.40;1.00;;;;;;5069850;28;20469;-76
2023/10/03 03:53:05;;;;;;;14.50;12.00;;;15.40;1.00;;;;;;5070934;28;21017;-75
2023/10/03 03:55:34;;;;;;;16.07;11.43;;;15.40;1.00;;;;;;5071878;28;21395;-75
2023/10/03 03:58:04;;;;;;;17.40;13.43;;;15.40;1.00;;;;;;5072119;28;20868;-75
2023/10/03 04:00:32;;;;;;;14.80;13.00;;;15.30;1.00;;;;;;5071065;28;20913;-77
2023/10/03 04:03:05;;;;;;;16.27;12.80;;;15.30;1.00;;;;;;5070956;28;20454;-77
2023/10/03 04:05:33;;;;;;;16.63;12.87;;;15.30;1.00;;;;;;5054127;28;20580;-76
2023/10/03 04:08:03;;;;;;;14.50;12.67;;;15.40;1.00;;;;;;5071964;28;20463;-77
2023/10/03 04:10:33;;;;;;;13.67;12.27;;;15.40;1.00;;;;;;5068720;28;20459;-77
2023/10/03 04:13:04;;;;;;;16.83;12.47;;;15.30;1.00;;;;;;5067279;28;20497;-75
2023/10/03 04:15:32;;;;;;;13.97;12.47;;;15.30;1.00;;;;;;5067135;28;20540;-75
2023/10/03 04:17:59;;;;;;;17.27;13.23;;;15.40;1.00;;;;;;5069447;28;20886;-76
2023/10/03 04:20:30;;;;;;;17.03;12.90;;;15.40;1.00;;;;;;5073352;28;21294;-77
2023/10/03 04:22:59;;;;;;;14.93;13.17;;;15.40;1.00;;;;;;5053899;28;20467;-75
2023/10/03 04:25:27;;;;;;;16.73;13.03;;;15.40;1.00;;;;;;5047772;28;20499;-75
2023/10/03 04:27:55;;;;;;;15.47;12.73;;;15.30;1.00;;;;;;5051495;28;20455;-74
2023/10/03 04:30:25;;;;;;;15.07;11.30;;;15.30;1.00;;;;;;5064209;28;20551;-75
2023/10/03 04:32:54;;;;;;;17.27;13.23;;;15.30;1.00;;;;;;5052714;28;21041;-76
2023/10/03 04:35:22;;;;;;;15.03;12.03;;;15.30;1.00;;;;;;5051162;28;20502;-75
2023/10/03 04:37:51;;;;;;;17.93;12.77;;;15.30;1.00;;;;;;5049739;28;20463;-75
2023/10/03 04:40:23;;;;;;;13.43;11.20;;;15.40;1.00;;;;;;5060047;28;20489;-75
2023/10/03 04:42:50;;;;;;;16.83;12.33;;;15.40;1.00;;;;;;5064286;28;20439;-75
2023/10/03 04:45:19;;;;;;;17.67;13.50;;;15.40;1.00;;;;;;5072121;28;20575;-75
2023/10/03 04:47:48;;;;;;;19.60;12.43;;;15.50;1.00;;;;;;5070097;28;20463;-74
2023/10/03 04:50:23;;;;;;;18.57;14.13;;;15.60;1.00;;;;;;5072518;28;20977;-75
2023/10/03 04:52:50;;;;;;;16.73;11.97;;;15.60;1.00;;;;;;5068821;28;20465;-74
2023/10/03 04:55:18;;;;;;;16.27;11.97;;;15.60;1.00;;;;;;5072327;28;20528;-75
2023/10/03 04:57:46;;;;;;;17.10;12.07;;;15.60;1.00;;;;;;5070265;28;20498;-75
2023/10/03 05:00:15;;;;;;;16.83;13.10;;;15.60;1.00;;;;;;5068563;28;20493;-74
2023/10/03 05:02:46;;;;;;;15.43;12.27;;;15.60;1.00;;;;;;5049467;28;20546;-76
2023/10/03 05:05:16;;;;;;;15.50;11.90;;;15.60;1.00;;;;;;5045888;28;21014;-76
2023/10/03 05:07:44;;;;;;;14.93;12.40;;;15.60;1.00;;;;;;5049119;28;20974;-75
2023/10/03 05:10:11;;;;;;;16.10;12.30;;;15.70;1.00;;;;;;5062906;28;20474;-74
2023/10/03 05:12:39;;;;;;;13.80;12.40;;;15.70;1.00;;;;;;5064911;28;20491;-74
2023/10/03 05:15:08;;;;;;;15.53;12.70;;;15.70;1.00;;;;;;5069769;28;20561;-74
2023/10/03 05:17:35;;;;;;;18.70;13.67;;;15.70;1.00;;;;;;5069099;28;20461;-75
2023/10/03 05:20:03;;;;;;;17.53;12.60;;;15.70;1.00;;;;;;5069620;28;20467;-75
2023/10/03 05:22:33;;;;;;;16.67;12.80;;;15.80;1.00;;;;;;5068488;28;20454;-74
2023/10/03 05:25:00;;;;;;;18.40;13.20;;;15.80;1.00;;;;;;5066191;28;20485;-78
2023/10/03 05:27:28;;;;;;;20.23;13.37;;;15.90;1.00;;;;;;5069723;28;20936;-77
2023/10/03 05:29:59;;;;;;;15.80;12.67;;;16.00;1.00;;;;;;5084302;28;22085;-76
2023/10/03 05:32:28;;;;;;;19.60;15.17;;;16.00;1.00;;;;;;5069223;28;20478;-76
2023/10/03 05:34:55;;;;;;;18.90;13.27;;;16.10;1.00;;;;;;5067545;28;20481;-75
2023/10/03 05:37:22;;;;;;;19.87;14.70;;;16.20;1.00;;;;;;5069529;28;20627;-77
2023/10/03 05:39:51;;;;;;;17.60;12.77;;;16.20;1.00;;;;;;5068853;28;20617;-77
2023/10/03 05:42:18;;;;;;;19.50;13.70;;;16.30;1.00;;;;;;5048869;28;21266;-77
2023/10/03 05:44:45;;;;;;;17.17;13.47;;;16.40;1.00;;;;;;5046416;28;20857;-77
2023/10/03 05:47:12;;;;;;;15.60;13.20;;;16.40;1.00;;;;;;5046583;28;20460;-76
2023/10/03 05:49:39;;;;;;;16.50;13.10;;;16.40;1.00;;;;;;5048004;28;20994;-76
2023/10/03 05:52:08;;;;;;;16.57;12.20;;;16.50;1.00;;;;;;5049990;28;20522;-76
2023/10/03 05:54:35;;;;;;;17.00;12.77;;;16.50;1.00;;;;;;5047443;28;20467;-75
2023/10/03 05:57:04;;;;;;;16.40;11.90;;;16.60;1.00;;;;;;5048146;28;20453;-78
2023/10/03 05:59:31;;;;;;;17.20;13.00;;;16.60;1.00;;;;;;5049283;28;20468;-76
2023/10/03 06:01:59;;;;;;;14.83;11.37;;;16.70;1.00;;;;;;5051313;28;20444;-76
2023/10/03 06:04:27;;;;;;;15.00;12.60;;;16.80;1.00;;;;;;5049565;28;20472;-76
2023/10/03 06:06:55;;;;;;;15.37;12.00;;;16.90;1.00;;;;;;5048297;28;20475;-73
2023/10/03 06:09:23;;;;;;;20.80;13.17;;;16.90;1.00;;;;;;5044771;28;20962;-75
2023/10/03 06:11:51;;;;;;;15.03;12.73;;;17.00;1.00;;;;;;5051241;28;20495;-76
2023/10/03 06:14:21;;;;;;;17.33;13.27;;;17.10;1.00;;;;;;5047935;28;20476;-75
2023/10/03 06:16:48;;;;;;;24.90;13.20;;;17.20;1.00;;;;;;5048323;28;20449;-75
2023/10/03 06:19:14;;;;;;;14.90;11.90;;;17.30;1.00;;;;;;5049125;28;20598;-76
2023/10/03 06:21:42;;;;;;;15.90;11.77;;;17.30;1.00;;;;;;5047576;28;20587;-77
2023/10/03 06:24:09;;;;;;;15.80;12.70;;;17.40;1.00;;;;;;5046811;28;20475;-76
2023/10/03 06:26:36;;;;;;;15.77;11.73;;;17.40;1.00;;;;;;5045243;28;20437;-77
2023/10/03 06:29:03;;;;;;;14.87;11.73;;;17.40;1.00;;;;;;5044816;28;20462;-77
2023/10/03 06:31:32;;;;;;;20.30;13.30;;;17.40;1.00;;;;;;5044481;28;21188;-77
2023/10/03 06:34:00;;;;;;;16.57;12.30;;;17.50;1.00;;;;;;5046135;28;20499;-76
2023/10/03 06:36:27;;;;;;;16.23;12.50;;;17.50;1.00;;;;;;5048037;28;20906;-76
2023/10/03 06:38:54;;;;;;;16.23;11.87;;;17.60;1.00;;;;;;5046051;28;20486;-78
2023/10/03 06:41:21;;;;;;;20.33;13.17;;;17.70;1.00;;;;;;5052761;28;20534;-76
2023/10/03 06:43:49;;;;;;;17.53;12.40;;;17.70;1.00;;;;;;5061536;27;20914;-77
2023/10/03 06:46:16;;;;;;;17.73;11.90;;;17.70;1.00;;;;;;5066221;28;21666;-75
2023/10/03 06:48:47;;;;;;;16.10;11.90;;;17.70;1.00;;;;;;5067652;28;21001;-77
2023/10/03 06:51:13;;;;;;;15.57;12.50;;;17.70;1.00;;;;;;5068810;28;20459;-77
2023/10/03 06:53:42;;;;;;;17.97;13.40;;;17.80;1.00;;;;;;5055521;28;20568;-75
2023/10/03 06:56:09;;;;;;;18.57;12.77;;;17.90;1.00;;;;;;5046124;28;20507;-76
2023/10/03 06:58:36;;;;;;;16.57;13.07;;;17.90;1.00;;;;;;5048545;28;20954;-76
2023/10/03 07:01:03;;;;;;;16.70;11.70;;;18.00;1.00;;;;;;5043948;28;22556;-75
2023/10/03 07:03:30;;;;;;;15.93;12.33;;;18.20;1.00;;;;;;5043337;28;20477;-76
2023/10/03 07:05:59;;;;;;;15.30;13.33;;;18.30;1.00;;;;;;5043955;28;20454;-76
2023/10/03 07:08:27;;;;;;;15.60;12.00;;;18.40;1.00;;;;;;5046952;28;20532;-75
2023/10/03 07:10:54;;;;;;;17.10;12.67;;;18.50;1.00;;;;;;5045734;28;20543;-75
2023/10/03 07:13:21;;;;;;;14.20;12.50;;;18.50;1.00;;;;;;5060009;28;20474;-78
2023/10/03 07:15:48;;;;;;;18.33;13.27;;;18.60;1.00;;;;;;5055428;28;20467;-77
2023/10/03 07:18:15;;;;;;;19.47;13.47;;;18.70;1.00;;;;;;5044474;28;20974;-75
2023/10/03 07:20:43;;;;;;;14.77;12.50;;;18.80;1.00;;;;;;5049182;28;20466;-76
2023/10/03 07:23:11;;;;;;;17.30;12.93;;;18.90;1.00;;;;;;5047187;28;22394;-76
2023/10/03 07:25:38;;;;;;;15.73;12.60;;;19.00;1.00;;;;;;5058787;28;20577;-76
2023/10/03 07:28:05;;;;;;;16.00;12.63;;;19.00;1.00;;;;;;5059726;28;21911;-76
2023/10/03 07:30:34;;;;;;;17.50;13.13;;;19.00;1.00;;;;;;5050002;28;21020;-74
2023/10/03 07:33:01;;;;;;;18.17;13.13;;;19.10;1.00;;;;;;5049496;28;20850;-77
2023/10/03 07:35:29;;;;;;;19.40;13.53;;;19.10;1.00;;;;;;5069586;28;20454;-78
2023/10/03 07:37:57;;;;;;;16.50;13.30;;;19.20;1.00;;;;;;5060507;28;20478;-77
2023/10/03 07:40:27;;;;;;;18.80;13.70;;;19.30;1.00;;;;;;5064715;27;20834;-77
2023/10/03 07:42:54;;;;;;;22.10;13.53;;;19.40;1.00;;;;;;5057760;28;20499;-75
2023/10/03 07:45:21;;;;;;;18.50;13.37;;;19.50;1.00;;;;;;5073618;28;20485;-75
2023/10/03 07:47:50;;;;;;;15.63;12.40;;;19.60;1.00;;;;;;5071552;28;20454;-75
2023/10/03 07:50:18;;;;;;;22.00;14.33;;;19.70;1.00;;;;;;5071145;28;20549;-76
2023/10/03 07:52:48;;;;;;;18.60;13.00;;;19.90;1.00;;;;;;5065698;28;20470;-75
2023/10/03 07:55:16;;;;;;;18.83;13.90;;;19.90;1.00;;;;;;5066096;28;20513;-76
2023/10/03 07:57:44;;;;;;;19.17;13.80;;;20.00;1.00;;;;;;5058793;28;20475;-76
2023/10/03 08:00:20;;;;;;;21.70;14.93;;;20.10;1.00;;;;;;5051042;28;20815;-74
2023/10/03 08:02:49;;;;;;;19.20;14.10;;;20.00;1.00;;;;;;5049252;28;20467;-74
2023/10/03 08:05:17;;;;;;;19.03;13.40;;;20.10;1.00;;;;;;5067878;28;20862;-75
2023/10/03 08:07:47;;;;;;;22.03;14.63;;;20.30;1.00;;;;;;5072837;28;20466;-79
2023/10/03 08:10:15;;;;;;;20.80;14.07;;;20.30;1.00;;;;;;5069183;28;20515;-76
2023/10/03 08:12:44;;;;;;;21.27;15.57;;;20.50;1.00;;;;;;5068859;28;21081;-75
2023/10/03 08:15:18;;;;;;;24.23;16.23;;;20.60;1.00;;;;;;5068555;28;20460;-74
2023/10/03 08:17:48;;;;;;;19.93;14.63;;;20.90;1.00;;;;;;5052320;28;20577;-77
2023/10/03 08:20:15;;;;;;;25.80;15.83;;;21.20;1.00;;;;;;5070134;28;20559;-74
2023/10/03 08:22:50;;;;;;;24.03;17.03;;;21.50;1.00;;;;;;5062309;28;21066;-75
2023/10/03 08:25:18;;;;;;;25.13;15.40;;;22.00;1.00;;;;;;5087340;27;20592;-77
2023/10/03 08:27:46;;;;;;;20.13;15.00;;;22.40;1.00;;;;;;5066752;28;20471;-74
2023/10/03 08:30:28;;;;;;;24.63;16.93;;;22.60;1.00;;;;;;5058575;28;20601;-72
2023/10/03 08:32:56;;;;;;;22.30;15.37;;;22.90;1.00;;;;;;5069994;28;20521;-73
2023/10/03 08:35:34;;;;;;;22.03;15.07;;;22.90;1.00;;;;;;5069304;28;20478;-70
2023/10/03 08:38:08;;;;;;;22.33;16.07;;;23.10;1.00;;;;;;5070434;28;20469;-71
2023/10/03 08:40:39;;;;;;;20.00;14.70;;;23.30;1.00;;;;;;5056677;28;20550;-73
2023/10/03 08:43:09;;;;;;;20.40;16.10;;;23.80;1.00;;;;;;5066016;28;20474;-75
2023/10/03 08:45:40;;;;;;;21.57;15.90;;;24.10;1.00;;;;;;5068417;28;20463;-70
2023/10/03 08:48:09;;;;;;;19.97;15.33;;;24.40;1.00;;;;;;5069635;28;20487;-70
2023/10/03 08:50:43;;;;;;;21.87;15.93;;;25.20;1.00;;;;;;5066589;28;21202;-72
2023/10/03 08:53:26;;;;;;;20.53;14.50;;;26.30;1.00;;;;;;5068907;28;20465;-71
2023/10/03 08:55:57;;;;;;;21.10;16.30;;;26.30;1.00;;;;;;5056838;28;20508;-71
2023/10/03 08:58:28;;;;;;;19.27;15.67;;;25.50;1.00;;;;;;5054639;28;20988;-69
2023/10/03 09:00:59;;;;;;;21.33;15.47;;;25.00;1.00;;;;;;5046406;28;20572;-71
2023/10/03 09:03:42;;;;;;;18.93;14.27;;;24.70;1.00;;;;;;5057764;28;20467;-71
2023/10/03 09:06:09;;;;;;;20.97;15.40;;;24.70;1.00;;;;;;5069183;28;20969;-72
2023/10/03 09:08:37;;;;;;;22.07;16.03;;;24.90;1.00;;;;;;5070619;28;20569;-68
2023/10/03 09:11:13;;;;;;;20.17;15.93;;;25.00;1.00;;;;;;5067051;28;20481;-73
2023/10/03 09:13:45;;;;;;;20.43;14.87;;;25.10;1.00;;;;;;5056370;28;20466;-68
2023/10/03 09:16:15;;;;;;;19.60;14.80;;;24.90;1.00;;;;;;5053837;28;20490;-69
2023/10/03 09:18:42;;;;;;;23.90;15.40;;;24.90;1.00;;;;;;5046325;28;20463;-68
2023/10/03 09:21:14;;;;;;;19.40;15.53;;;25.10;1.00;;;;;;5048893;28;21247;-67
2023/10/03 09:23:59;;;;;;;18.70;14.60;;;25.30;1.00;;;;;;5047152;28;21162;-68
2023/10/03 09:26:28;;;;;;;21.70;14.93;;;25.40;1.00;;;;;;5055828;28;20467;-69
2023/10/03 09:29:01;;;;;;;18.57;14.50;;;25.40;1.00;;;;;;5065812;28;20463;-71
2023/10/03 09:31:31;;;;;;;14.93;13.30;;;25.30;1.00;;;;;;5047191;28;20549;-68
2023/10/03 09:34:01;;;;;;;19.90;14.57;;;25.30;1.00;;;;;;5048756;28;20922;-69
2023/10/03 09:36:35;;;;;;;20.77;14.87;;;25.30;1.00;;;;;;5046037;28;20458;-71
2023/10/03 09:39:02;;;;;;;18.97;14.60;;;25.30;1.00;;;;;;5049811;28;20480;-71
2023/10/03 09:41:30;;;;;;;21.53;14.70;;;25.50;1.00;;;;;;5048081;28;20483;-72
2023/10/03 09:43:58;;;;;;;21.33;15.07;;;25.60;1.00;;;;;;5059054;28;20678;-72
2023/10/03 09:46:38;;;;;;;19.60;14.23;;;25.70;1.00;;;;;;5069913;28;20472;-74
2023/10/03 09:49:09;;;;;;;17.53;13.73;;;25.80;1.00;;;;;;5068454;28;20491;-71
2023/10/03 09:51:51;;;;;;;18.77;15.17;;;25.90;1.00;;;;;;5066841;28;20928;-73
2023/10/03 09:54:24;;;;;;;26.83;18.67;;;25.90;1.00;;;;;;5066458;27;20555;-72
2023/10/03 09:56:55;;;;;;;22.23;16.30;;;25.70;1.00;;;;;;5067930;28;20821;-72
2023/10/03 09:59:24;;;;;;;21.23;14.67;;;25.70;1.00;;;;;;5070199;28;20489;-69
2023/10/03 10:01:55;;;;;;;21.30;15.17;;;25.60;1.00;;;;;;5056978;28;20454;-72
2023/10/03 10:04:23;;;;;;;19.23;14.00;;;25.50;1.00;;;;;;5067660;28;20466;-70
2023/10/03 10:06:54;;;;;;;20.00;14.87;;;25.50;1.00;;;;;;5066871;28;20420;-72
2023/10/03 10:09:28;;;;;;;20.07;14.90;;;25.70;1.00;;;;;;5067765;28;20988;-69
2023/10/03 10:12:18;;;;;;;21.07;14.33;;;26.00;1.00;;;;;;5065030;28;21292;-70
2023/10/03 10:15:21;;;;;;;19.43;14.23;;;26.70;1.00;;;;;;5046826;28;20897;-70
2023/10/03 10:17:54;;;;;;;18.13;13.87;;;27.20;1.00;;;;;;5059611;28;20438;-70
2023/10/03 10:20:27;;;;;;;17.40;15.37;;;27.00;1.00;;;;;;5069226;28;20474;-73
2023/10/03 10:23:17;;;;;;;17.83;14.60;;;27.10;1.00;;;;;;5052952;28;20530;-71
2023/10/03 10:25:58;;;;;;;18.60;13.83;;;27.30;1.00;;;;;;5043273;27;20506;-75
2023/10/03 10:28:31;;;;;;;17.63;13.27;;;28.10;1.00;;;;;;5049386;28;20965;-75
2023/10/03 10:31:29;;;;;;;17.57;13.50;;;28.70;1.00;;;;;;5044982;28;21081;-73
2023/10/03 10:34:46;;;;;;;19.37;13.33;;;28.70;1.00;;;;;;5070122;28;20484;-70
2023/10/03 10:37:17;;;;;;;18.43;14.87;;;28.80;1.00;;;;;;5063524;28;20514;-70
2023/10/03 10:40:17;;;;;;;19.43;14.00;;;28.90;1.00;;;;;;5059509;28;20558;-73
2023/10/03 10:42:59;;;;;;;16.40;13.27;;;28.90;1.00;;;;;;5054805;28;21001;-70
2023/10/03 10:45:26;;;;;;;15.43;12.33;;;29.20;1.00;;;;;;5050096;28;20488;-71
2023/10/03 10:47:56;;;;;;;17.87;13.33;;;29.40;1.00;;;;;;5045957;28;20558;-75
2023/10/03 10:50:25;;;;;;;16.93;13.47;;;29.30;1.00;;;;;;5048014;28;21138;-77
2023/10/03 10:52:55;;;;;;;16.53;13.07;;;29.10;1.00;;;;;;5046937;28;20469;-77
2023/10/03 10:55:25;;;;;;;15.00;11.97;;;28.90;1.00;;;;;;5045790;28;20683;-77
2023/10/03 10:58:07;;;;;;;17.60;14.63;;;28.80;1.00;;;;;;5049985;28;20480;-77
2023/10/03 11:00:34;;;;;;;17.47;12.97;;;28.80;1.00;;;;;;5048421;28;20839;-76
2023/10/03 11:03:04;;;;;;;15.90;11.93;;;28.80;1.00;;;;;;5049713;28;21021;-78
2023/10/03 11:05:46;;;;;;;16.07;12.73;;;28.50;1.00;;;;;;5047821;28;20507;-75
2023/10/03 11:08:13;;;;;;;17.20;12.00;;;28.40;1.00;;;;;;5052837;28;21281;-80
2023/10/03 11:10:52;;;;;;;13.50;11.57;;;28.20;1.00;;;;;;5064914;28;20455;-76
2023/10/03 11:13:20;;;;;;;15.80;12.23;;;27.90;1.00;;;;;;5065800;28;20450;-77
2023/10/03 11:15:50;;;;;;;15.83;12.70;;;27.60;1.00;;;;;;5070661;28;20468;-76
2023/10/03 11:18:28;;;;;;;16.83;11.30;;;27.30;1.00;;;;;;5064779;28;20581;-74
2023/10/03 11:20:56;;;;;;;15.27;10.63;;;27.00;1.00;;;;;;5063574;28;20490;-76
2023/10/03 11:23:25;;;;;;;17.47;12.30;;;27.00;1.00;;;;;;5054504;28;20481;-76
2023/10/03 11:25:55;;;;;;;14.40;10.90;;;27.10;1.00;;;;;;5046412;28;20484;-77
2023/10/03 11:28:22;;;;;;;15.00;11.33;;;27.50;1.00;;;;;;5044622;28;20478;-77
2023/10/03 11:31:01;;;;;;;12.90;10.30;;;28.20;1.00;;;;;;5057392;28;21065;-76
2023/10/03 11:33:31;;;;;;;15.40;10.97;;;28.10;1.00;;;;;;5078945;27;20525;-78
2023/10/03 11:35:58;;;;;;;18.43;11.83;;;28.00;1.00;;;;;;5048845;28;20491;-77
2023/10/03 11:38:25;;;;;;;14.87;11.30;;;27.80;1.00;;;;;;5044099;28;20470;-78
2023/10/03 11:40:52;;;;;;;16.27;11.67;;;27.70;1.00;;;;;;5065140;28;20472;-77
2023/10/03 11:43:23;;;;;;;13.20;10.80;;;27.40;1.00;;;;;;5050968;28;20503;-77
2023/10/03 11:45:56;;;;;;;14.73;10.33;;;27.00;1.00;;;;;;5049457;28;20482;-75
2023/10/03 11:48:23;;;;;;;13.50;11.00;;;26.80;1.00;;;;;;5040835;28;20463;-77
2023/10/03 11:50:52;;;;;;;15.73;10.77;;;26.40;1.00;;;;;;5045665;28;20567;-76
2023/10/03 11:53:21;;;;;;;12.80;10.30;;;26.30;1.00;;;;;;5042976;28;21209;-75
2023/10/03 11:55:53;;;;;;;15.70;11.30;;;26.10;1.00;;;;;;5050844;28;20485;-78
2023/10/03 11:58:20;;;;;;;10.40;9.30;;;26.00;1.00;;;;;;5061857;28;20599;-73
2023/10/03 12:00:49;;;;;;;15.17;11.07;;;25.90;1.00;;;;;;5062669;28;20465;-72
2023/10/03 12:03:16;;;;;;;14.00;10.83;;;25.80;1.00;;;;;;5061744;28;20455;-71
2023/10/03 12:05:45;;;;;;;14.60;11.20;;;25.90;1.00;;;;;;5067162;28;20988;-72
2023/10/03 12:08:13;;;;;;;14.70;11.10;;;25.90;1.00;;;;;;5065252;28;20835;-73
2023/10/03 12:10:42;;;;;;;13.03;11.23;;;25.90;1.00;;;;;;5064454;28;20454;-72
2023/10/03 12:13:09;;;;;;;14.93;10.60;;;25.60;1.00;;;;;;5072536;28;20477;-71
2023/10/03 12:15:41;;;;;;;14.10;9.97;;;25.50;1.00;;;;;;5048382;28;20533;-70
2023/10/03 12:18:09;;;;;;;18.30;11.33;;;25.50;1.00;;;;;;5068909;28;20507;-71
2023/10/03 12:20:38;;;;;;;11.90;10.20;;;25.50;1.00;;;;;;5069903;28;20532;-70
2023/10/03 12:23:05;;;;;;;15.57;10.87;;;25.40;1.00;;;;;;5061207;28;20506;-70
2023/10/03 12:25:33;;;;;;;14.10;10.80;;;25.30;1.00;;;;;;5052646;28;20980;-69
2023/10/03 12:28:00;;;;;;;12.33;10.57;;;25.40;1.00;;;;;;5068412;28;20484;-71
2023/10/03 12:30:27;;;;;;;14.43;9.90;;;25.40;1.00;;;;;;5067076;28;21025;-74
2023/10/03 12:32:55;;;;;;;16.03;9.90;;;25.40;1.00;;;;;;5060309;28;20456;-70
2023/10/03 12:35:22;;;;;;;15.10;10.60;;;25.30;1.00;;;;;;5058301;28;20567;-69
2023/10/03 12:37:49;;;;;;;13.93;10.60;;;25.30;1.00;;;;;;5050994;28;20488;-71
2023/10/03 12:40:18;;;;;;;11.27;9.90;;;25.40;1.00;;;;;;5045714;28;20455;-71
2023/10/03 12:42:51;;;;;;;15.80;10.47;;;25.50;1.00;;;;;;5067491;28;20574;-75
2023/10/03 12:45:20;;;;;;;12.13;8.97;;;25.50;1.00;;;;;;5070147;28;20466;-70
2023/10/03 12:47:48;;;;;;;14.63;10.00;;;25.50;1.00;;;;;;5069257;28;20498;-71
2023/10/03 12:50:19;;;;;;;10.70;9.30;;;25.40;1.00;;;;;;5069346;28;20477;-71
2023/10/03 12:52:47;;;;;;;11.93;9.63;;;25.40;1.00;;;;;;5069808;28;20475;-70